Time,TemperatureF,DewpointF,PressureIn,WindDirection,WindDirectionDegrees,WindSpeedMPH,WindSpeedGustMPH,Humidity,HourlyPrecipIn,Conditions,Clouds,dailyrainin,SoftwareType,DateUTC
2013-01-02 00:00:00,18.9,16.2,30.06,South,180,1.0,5.0,89,0.00,,,-99.99,WeatherLink 5.7,2013-01-02 06:00:00,
2013-01-02 00:30:00,19.1,16.1,30.05,SSW,202,1.0,5.0,88,0.00,,,-99.99,WeatherLink 5.7,2013-01-02 06:30:00,
2013-01-02 01:00:00,19.1,16.4,30.04,SSW,202,1.0,4.0,89,0.00,,,-99.99,WeatherLink 5.7,2013-01-02 07:00:00,
2013-01-02 01:30:00,19.1,16.4,30.03,SSW,202,1.0,4.0,89,0.00,,,-99.99,WeatherLink 5.7,2013-01-02 07:30:00,
2013-01-02 02:00:00,18.9,15.9,30.03,NNE,22,1.0,3.0,88,0.00,,,-99.99,WeatherLink 5.7,2013-01-02 08:00:00,
2013-01-02 02:30:00,18.8,15.8,30.03,NE,45,1.0,4.0,88,0.00,,,-99.99,WeatherLink 5.7,2013-01-02 08:30:00,
2013-01-02 03:00:00,18.6,15.6,30.03,NE,45,1.0,4.0,88,0.00,,,-99.99,WeatherLink 5.7,2013-01-02 09:00:00,
2013-01-02 03:30:00,18.3,15.6,30.02,SE,135,2.0,5.0,89,0.00,,,-99.99,WeatherLink 5.7,2013-01-02 09:30:00,
2013-01-02 04:00:00,18.0,15.3,30.01,SSE,157,1.0,4.0,89,0.00,,,-99.99,WeatherLink 5.7,2013-01-02 10:00:00,
2013-01-02 04:30:00,17.7,15.0,30.00,SE,135,1.0,4.0,89,0.00,,,-99.99,WeatherLink 5.7,2013-01-02 10:30:00,
2013-01-02 05:00:00,17.4,14.7,30.00,ESE,112,1.0,4.0,89,0.00,,,-99.99,WeatherLink 5.7,2013-01-02 11:00:00,
2013-01-02 05:30:00,17.1,14.7,29.98,ESE,112,1.0,4.0,90,0.00,,,-99.99,WeatherLink 5.7,2013-01-02 11:30:00,
2013-01-02 06:00:00,16.8,14.1,29.99,ESE,112,2.0,4.0,89,0.00,,,-99.99,WeatherLink 5.7,2013-01-02 12:00:00,
2013-01-02 06:30:00,16.3,13.9,29.98,ESE,112,2.0,5.0,90,0.00,,,-99.99,WeatherLink 5.7,2013-01-02 12:30:00,
2013-01-02 07:00:00,15.7,13.0,29.99,ESE,112,2.0,5.0,89,0.00,,,-99.99,WeatherLink 5.7,2013-01-02 13:00:00,
2013-01-02 07:30:00,15.2,12.8,30.00,ESE,112,1.0,5.0,90,0.00,,,-99.99,WeatherLink 5.7,2013-01-02 13:30:00,
2013-01-02 08:00:00,15.0,12.6,30.00,ESE,112,2.0,4.0,90,0.00,,,-99.99,WeatherLink 5.7,2013-01-02 14:00:00,
2013-01-02 08:30:00,15.0,12.8,30.00,ESE,112,2.0,5.0,91,0.00,,,-99.99,WeatherLink 5.7,2013-01-02 14:30:00,
2013-01-02 09:00:00,14.8,12.4,30.00,East,90,2.0,5.0,90,0.00,,,-99.99,WeatherLink 5.7,2013-01-02 15:00:00,
2013-01-02 09:30:00,14.5,11.9,30.02,ESE,112,2.0,6.0,89,0.00,,,-99.99,WeatherLink 5.7,2013-01-02 15:30:00,
2013-01-02 10:00:00,14.3,11.7,30.02,ESE,112,2.0,4.0,89,0.00,,,-99.99,WeatherLink 5.7,2013-01-02 16:00:00,
2013-01-02 10:30:00,14.3,11.7,30.02,ESE,112,2.0,4.0,89,0.00,,,-99.99,WeatherLink 5.7,2013-01-02 16:30:00,
2013-01-02 11:00:00,14.4,11.5,30.01,ESE,112,1.0,4.0,88,0.00,,,-99.99,WeatherLink 5.7,2013-01-02 17:00:00,
2013-01-02 11:30:00,14.6,11.7,29.99,ESE,112,2.0,5.0,88,0.00,,,-99.99,WeatherLink 5.7,2013-01-02 17:30:00,
2013-01-02 12:00:00,14.9,11.7,29.98,ESE,112,2.0,5.0,87,0.00,,,-99.99,WeatherLink 5.7,2013-01-02 18:00:00,
2013-01-02 12:30:00,15.3,11.9,29.98,ENE,67,1.0,3.0,86,0.00,,,-99.99,WeatherLink 5.7,2013-01-02 18:30:00,
2013-01-02 13:00:00,15.9,12.2,29.98,ENE,67,2.0,4.0,85,0.00,,,-99.99,WeatherLink 5.7,2013-01-02 19:00:00,
2013-01-02 13:30:00,16.1,12.4,29.98,ENE,67,1.0,4.0,85,0.00,,,-99.99,WeatherLink 5.7,2013-01-02 19:30:00,
2013-01-02 14:00:00,16.1,12.1,29.99,ENE,67,1.0,4.0,84,0.00,,,-99.99,WeatherLink 5.7,2013-01-02 20:00:00,
2013-01-02 14:30:00,16.2,12.5,29.98,ENE,67,2.0,4.0,85,0.00,,,-99.99,WeatherLink 5.7,2013-01-02 20:30:00,
2013-01-02 15:00:00,16.3,12.3,29.99,ENE,67,1.0,4.0,84,0.00,,,-99.99,WeatherLink 5.7,2013-01-02 21:00:00,
2013-01-02 15:30:00,16.3,12.3,30.00,ENE,67,1.0,3.0,84,0.00,,,-99.99,WeatherLink 5.7,2013-01-02 21:30:00,
2013-01-02 16:00:00,16.1,12.4,30.01,ENE,67,1.0,4.0,85,0.00,,,-99.99,WeatherLink 5.7,2013-01-02 22:00:00,
2013-01-02 16:30:00,15.9,12.2,30.02,ENE,67,1.0,3.0,85,0.00,,,-99.99,WeatherLink 5.7,2013-01-02 22:30:00,
2013-01-02 17:00:00,15.7,12.0,30.02,ENE,67,0.0,3.0,85,0.00,,,-99.99,WeatherLink 5.7,2013-01-02 23:00:00,
2013-01-02 17:30:00,15.6,12.2,30.03,ENE,67,1.0,3.0,86,0.00,,,-99.99,WeatherLink 5.7,2013-01-02 23:30:00,
2013-01-02 18:00:00,15.5,12.1,30.04,ENE,67,1.0,3.0,86,0.00,,,-99.99,WeatherLink 5.7,2013-01-03 00:00:00,
2013-01-02 19:00:00,71.8,67.7,30.04,ENE,67,1.0,3.0,87,0.00,,,-99.99,WeatherLink 5.7,2013-01-03 01:00:00,
2013-01-02 19:30:00,15.6,12.4,30.05,ENE,67,1.0,3.0,87,0.00,,,-99.99,WeatherLink 5.7,2013-01-03 01:30:00,
2013-01-02 20:00:00,15.6,12.4,30.05,ENE,67,1.0,3.0,87,0.00,,,-99.99,WeatherLink 5.7,2013-01-03 02:00:00,
2013-01-02 20:30:00,15.8,12.9,30.05,ENE,67,1.0,3.0,88,0.00,,,-99.99,WeatherLink 5.7,2013-01-03 02:30:00,
2013-01-02 21:00:00,16.1,13.2,30.06,ENE,67,0.0,2.0,88,0.00,,,-99.99,WeatherLink 5.7,2013-01-03 03:00:00,
2013-01-02 21:30:00,16.4,13.7,30.06,ENE,67,0.0,2.0,89,0.00,,,-99.99,WeatherLink 5.7,2013-01-03 03:30:00,
2013-01-02 22:00:00,16.7,14.3,30.07,North,-999,0.0,0.0,90,0.00,,,-99.99,WeatherLink 5.7,2013-01-03 04:00:00,
2013-01-02 22:30:00,17.0,14.6,30.08,North,-999,0.0,1.0,90,0.00,,,-99.99,WeatherLink 5.7,2013-01-03 04:30:00,
2013-01-02 23:09:00,17.4,15.2,30.08,ENE,67,0.0,2.0,91,0.00,,,-99.99,WeatherLink 5.7,2013-01-03 05:09:00,
2013-01-02 23:39:00,18.3,16.6,30.08,ENE,67,0.0,3.0,93,0.00,,,-99.99,WeatherLink 5.7,2013-01-03 05:39:00,